sensor_id;sensor_type;location;lat;lon;timestamp;temperature;humidity
43920;DHT22;29578;51.946;5.874;2023-01-09T00:00:12;8.10;89.70
43920;DHT22;29578;51.946;5.874;2023-01-09T00:02:38;8.00;89.80
43920;DHT22;29578;51.946;5.874;2023-01-09T00:05:06;8.00;89.90
43920;DHT22;29578;51.946;5.874;2023-01-09T00:07:32;8.00;90.00
43920;DHT22;29578;51.946;5.874;2023-01-09T00:09:58;7.90;90.00
43920;DHT22;29578;51.946;5.874;2023-01-09T00:12:24;7.80;90.30
43920;DHT22;29578;51.946;5.874;2023-01-09T00:14:49;7.90;90.10
43920;DHT22;29578;51.946;5.874;2023-01-09T00:17:15;7.90;90.10
43920;DHT22;29578;51.946;5.874;2023-01-09T00:19:40;7.80;90.10
43920;DHT22;29578;51.946;5.874;2023-01-09T00:22:06;7.80;90.10
43920;DHT22;29578;51.946;5.874;2023-01-09T00:24:35;7.80;90.20
43920;DHT22;29578;51.946;5.874;2023-01-09T00:27:01;7.70;90.20
43920;DHT22;29578;51.946;5.874;2023-01-09T00:29:27;7.70;90.20
43920;DHT22;29578;51.946;5.874;2023-01-09T00:31:53;7.60;90.20
43920;DHT22;29578;51.946;5.874;2023-01-09T00:34:18;7.60;90.30
43920;DHT22;29578;51.946;5.874;2023-01-09T00:36:44;7.60;90.30
43920;DHT22;29578;51.946;5.874;2023-01-09T00:39:10;7.50;90.40
43920;DHT22;29578;51.946;5.874;2023-01-09T00:41:41;7.50;90.40
43920;DHT22;29578;51.946;5.874;2023-01-09T00:44:13;7.40;90.40
43920;DHT22;29578;51.946;5.874;2023-01-09T00:46:43;7.40;90.40
43920;DHT22;29578;51.946;5.874;2023-01-09T00:49:11;7.40;90.40
43920;DHT22;29578;51.946;5.874;2023-01-09T00:51:38;7.30;90.40
43920;DHT22;29578;51.946;5.874;2023-01-09T00:54:05;7.40;90.50
43920;DHT22;29578;51.946;5.874;2023-01-09T00:56:32;7.20;90.40
43920;DHT22;29578;51.946;5.874;2023-01-09T00:58:59;7.20;90.50
43920;DHT22;29578;51.946;5.874;2023-01-09T01:01:24;7.20;90.50
43920;DHT22;29578;51.946;5.874;2023-01-09T01:03:50;7.10;90.50
43920;DHT22;29578;51.946;5.874;2023-01-09T01:06:16;7.10;90.50
43920;DHT22;29578;51.946;5.874;2023-01-09T01:08:52;7.10;90.60
43920;DHT22;29578;51.946;5.874;2023-01-09T01:11:20;7.00;90.60
43920;DHT22;29578;51.946;5.874;2023-01-09T01:13:46;7.00;90.60
43920;DHT22;29578;51.946;5.874;2023-01-09T01:16:12;6.90;90.60
43920;DHT22;29578;51.946;5.874;2023-01-09T01:18:39;7.00;90.60
43920;DHT22;29578;51.946;5.874;2023-01-09T01:21:07;6.90;90.60
43920;DHT22;29578;51.946;5.874;2023-01-09T01:23:34;6.90;90.70
43920;DHT22;29578;51.946;5.874;2023-01-09T01:26:10;6.80;90.70
43920;DHT22;29578;51.946;5.874;2023-01-09T01:28:36;6.80;90.70
43920;DHT22;29578;51.946;5.874;2023-01-09T01:31:02;6.70;90.70
43920;DHT22;29578;51.946;5.874;2023-01-09T01:33:28;6.70;90.70
43920;DHT22;29578;51.946;5.874;2023-01-09T01:36:03;6.70;90.70
43920;DHT22;29578;51.946;5.874;2023-01-09T01:38:29;6.70;90.70
43920;DHT22;29578;51.946;5.874;2023-01-09T01:40:56;6.70;90.70
43920;DHT22;29578;51.946;5.874;2023-01-09T01:43:21;6.70;90.70
43920;DHT22;29578;51.946;5.874;2023-01-09T01:45:47;6.60;90.70
43920;DHT22;29578;51.946;5.874;2023-01-09T01:48:23;6.60;90.70
43920;DHT22;29578;51.946;5.874;2023-01-09T01:50:58;6.50;90.70
43920;DHT22;29578;51.946;5.874;2023-01-09T01:53:45;6.50;90.80
43920;DHT22;29578;51.946;5.874;2023-01-09T01:56:27;6.50;90.80
43920;DHT22;29578;51.946;5.874;2023-01-09T01:59:08;6.50;90.80
43920;DHT22;29578;51.946;5.874;2023-01-09T02:01:34;6.50;90.80
43920;DHT22;29578;51.946;5.874;2023-01-09T02:04:04;6.50;90.80
43920;DHT22;29578;51.946;5.874;2023-01-09T02:06:32;6.50;90.70
43920;DHT22;29578;51.946;5.874;2023-01-09T02:08:58;6.40;90.70
43920;DHT22;29578;51.946;5.874;2023-01-09T02:11:25;6.40;90.70
43920;DHT22;29578;51.946;5.874;2023-01-09T02:13:51;6.40;90.80
43920;DHT22;29578;51.946;5.874;2023-01-09T02:16:39;6.40;90.80
43920;DHT22;29578;51.946;5.874;2023-01-09T02:19:41;6.30;90.80
43920;DHT22;29578;51.946;5.874;2023-01-09T02:25:54;6.20;90.80
43920;DHT22;29578;51.946;5.874;2023-01-09T02:31:24;6.20;90.90
43920;DHT22;29578;51.946;5.874;2023-01-09T02:34:05;6.20;90.90
43920;DHT22;29578;51.946;5.874;2023-01-09T02:36:44;6.20;90.90
43920;DHT22;29578;51.946;5.874;2023-01-09T02:39:32;6.20;91.00
43920;DHT22;29578;51.946;5.874;2023-01-09T02:44:44;6.10;90.90
43920;DHT22;29578;51.946;5.874;2023-01-09T02:47:35;6.20;90.90
43920;DHT22;29578;51.946;5.874;2023-01-09T02:50:04;6.10;90.90
43920;DHT22;29578;51.946;5.874;2023-01-09T02:52:56;6.10;91.00
43920;DHT22;29578;51.946;5.874;2023-01-09T02:55:52;6.00;91.00
43920;DHT22;29578;51.946;5.874;2023-01-09T02:58:44;6.10;91.00
43920;DHT22;29578;51.946;5.874;2023-01-09T03:01:50;6.10;91.00
43920;DHT22;29578;51.946;5.874;2023-01-09T03:07:15;6.00;90.90
43920;DHT22;29578;51.946;5.874;2023-01-09T03:09:44;6.00;90.90
43920;DHT22;29578;51.946;5.874;2023-01-09T03:12:17;5.90;90.90
43920;DHT22;29578;51.946;5.874;2023-01-09T03:14:48;6.00;91.00
43920;DHT22;29578;51.946;5.874;2023-01-09T03:17:22;6.00;91.00
43920;DHT22;29578;51.946;5.874;2023-01-09T03:19:51;5.90;91.00
43920;DHT22;29578;51.946;5.874;2023-01-09T03:22:18;5.90;91.00
43920;DHT22;29578;51.946;5.874;2023-01-09T03:24:43;5.90;91.00
43920;DHT22;29578;51.946;5.874;2023-01-09T03:27:09;5.90;91.00
43920;DHT22;29578;51.946;5.874;2023-01-09T03:29:35;5.90;91.00
43920;DHT22;29578;51.946;5.874;2023-01-09T03:32:01;5.90;91.10
43920;DHT22;29578;51.946;5.874;2023-01-09T03:34:27;5.90;91.10
43920;DHT22;29578;51.946;5.874;2023-01-09T03:36:53;5.80;91.10
43920;DHT22;29578;51.946;5.874;2023-01-09T03:39:18;5.90;91.10
43920;DHT22;29578;51.946;5.874;2023-01-09T03:41:44;5.80;91.10
43920;DHT22;29578;51.946;5.874;2023-01-09T03:44:10;5.80;91.10
43920;DHT22;29578;51.946;5.874;2023-01-09T03:46:35;5.80;91.10
43920;DHT22;29578;51.946;5.874;2023-01-09T03:49:01;5.80;91.20
43920;DHT22;29578;51.946;5.874;2023-01-09T03:51:26;5.80;91.20
43920;DHT22;29578;51.946;5.874;2023-01-09T03:53:52;5.80;91.20
43920;DHT22;29578;51.946;5.874;2023-01-09T03:56:18;5.80;91.20
43920;DHT22;29578;51.946;5.874;2023-01-09T03:58:43;5.80;91.20
43920;DHT22;29578;51.946;5.874;2023-01-09T04:01:09;5.90;91.30
43920;DHT22;29578;51.946;5.874;2023-01-09T04:03:38;5.70;91.20
43920;DHT22;29578;51.946;5.874;2023-01-09T04:06:05;5.70;91.20
43920;DHT22;29578;51.946;5.874;2023-01-09T04:08:30;5.70;91.20
43920;DHT22;29578;51.946;5.874;2023-01-09T04:10:56;5.70;91.20
43920;DHT22;29578;51.946;5.874;2023-01-09T04:13:22;5.70;91.30
43920;DHT22;29578;51.946;5.874;2023-01-09T04:15:47;5.70;91.30
43920;DHT22;29578;51.946;5.874;2023-01-09T04:18:14;5.70;91.30
43920;DHT22;29578;51.946;5.874;2023-01-09T04:20:40;5.60;91.30
43920;DHT22;29578;51.946;5.874;2023-01-09T04:23:06;5.60;91.30
43920;DHT22;29578;51.946;5.874;2023-01-09T04:25:31;5.60;91.30
43920;DHT22;29578;51.946;5.874;2023-01-09T04:27:57;5.60;91.30
43920;DHT22;29578;51.946;5.874;2023-01-09T04:30:23;5.60;91.30
43920;DHT22;29578;51.946;5.874;2023-01-09T04:32:49;5.60;91.30
43920;DHT22;29578;51.946;5.874;2023-01-09T04:35:16;5.60;91.30
43920;DHT22;29578;51.946;5.874;2023-01-09T04:37:42;5.60;91.30
43920;DHT22;29578;51.946;5.874;2023-01-09T04:40:08;5.60;91.30
43920;DHT22;29578;51.946;5.874;2023-01-09T04:42:37;5.60;91.30
43920;DHT22;29578;51.946;5.874;2023-01-09T04:45:04;5.60;91.30
43920;DHT22;29578;51.946;5.874;2023-01-09T04:47:30;5.60;91.40
43920;DHT22;29578;51.946;5.874;2023-01-09T04:49:57;5.60;91.40
43920;DHT22;29578;51.946;5.874;2023-01-09T04:52:23;5.50;91.40
43920;DHT22;29578;51.946;5.874;2023-01-09T04:54:49;5.60;91.40
43920;DHT22;29578;51.946;5.874;2023-01-09T04:57:15;5.70;91.30
43920;DHT22;29578;51.946;5.874;2023-01-09T04:59:40;5.70;91.30
43920;DHT22;29578;51.946;5.874;2023-01-09T05:02:06;5.80;91.30
43920;DHT22;29578;51.946;5.874;2023-01-09T05:04:31;5.80;91.20
43920;DHT22;29578;51.946;5.874;2023-01-09T05:06:57;5.80;91.20
43920;DHT22;29578;51.946;5.874;2023-01-09T05:09:23;5.80;91.20
43920;DHT22;29578;51.946;5.874;2023-01-09T05:11:49;5.80;91.10
43920;DHT22;29578;51.946;5.874;2023-01-09T05:14:15;5.80;91.10
43920;DHT22;29578;51.946;5.874;2023-01-09T05:16:41;5.90;91.10
43920;DHT22;29578;51.946;5.874;2023-01-09T05:19:06;5.90;91.10
43920;DHT22;29578;51.946;5.874;2023-01-09T05:21:32;5.90;91.10
43920;DHT22;29578;51.946;5.874;2023-01-09T05:23:58;5.90;91.00
43920;DHT22;29578;51.946;5.874;2023-01-09T05:26:23;5.90;91.10
43920;DHT22;29578;51.946;5.874;2023-01-09T05:28:50;5.90;91.10
43920;DHT22;29578;51.946;5.874;2023-01-09T05:31:17;5.90;91.10
43920;DHT22;29578;51.946;5.874;2023-01-09T05:33:43;6.00;91.10
43920;DHT22;29578;51.946;5.874;2023-01-09T05:36:08;5.90;91.00
43920;DHT22;29578;51.946;5.874;2023-01-09T05:38:34;6.00;91.00
43920;DHT22;29578;51.946;5.874;2023-01-09T05:41:00;6.00;91.00
43920;DHT22;29578;51.946;5.874;2023-01-09T05:43:25;6.00;91.00
43920;DHT22;29578;51.946;5.874;2023-01-09T05:45:51;6.00;91.00
43920;DHT22;29578;51.946;5.874;2023-01-09T05:48:16;5.90;91.00
43920;DHT22;29578;51.946;5.874;2023-01-09T05:50:42;6.00;91.00
43920;DHT22;29578;51.946;5.874;2023-01-09T05:53:08;6.00;91.00
43920;DHT22;29578;51.946;5.874;2023-01-09T05:55:33;6.00;91.00
43920;DHT22;29578;51.946;5.874;2023-01-09T05:57:59;6.00;91.10
43920;DHT22;29578;51.946;5.874;2023-01-09T06:00:25;6.00;91.10
43920;DHT22;29578;51.946;5.874;2023-01-09T06:02:50;6.00;91.10
43920;DHT22;29578;51.946;5.874;2023-01-09T06:05:16;5.90;91.10
43920;DHT22;29578;51.946;5.874;2023-01-09T06:07:42;6.00;91.20
43920;DHT22;29578;51.946;5.874;2023-01-09T06:10:10;6.00;91.20
43920;DHT22;29578;51.946;5.874;2023-01-09T06:12:36;6.00;91.20
43920;DHT22;29578;51.946;5.874;2023-01-09T06:15:02;6.10;91.10
43920;DHT22;29578;51.946;5.874;2023-01-09T06:17:28;6.10;91.00
43920;DHT22;29578;51.946;5.874;2023-01-09T06:19:54;6.10;91.00
43920;DHT22;29578;51.946;5.874;2023-01-09T06:22:20;6.20;91.00
43920;DHT22;29578;51.946;5.874;2023-01-09T06:24:45;6.20;91.00
43920;DHT22;29578;51.946;5.874;2023-01-09T06:27:11;6.30;91.00
43920;DHT22;29578;51.946;5.874;2023-01-09T06:29:37;6.20;91.00
43920;DHT22;29578;51.946;5.874;2023-01-09T06:32:03;6.30;90.90
43920;DHT22;29578;51.946;5.874;2023-01-09T06:34:29;6.30;90.90
43920;DHT22;29578;51.946;5.874;2023-01-09T06:36:55;6.40;90.90
43920;DHT22;29578;51.946;5.874;2023-01-09T06:39:20;6.50;90.90
43920;DHT22;29578;51.946;5.874;2023-01-09T06:41:46;6.50;90.90
43920;DHT22;29578;51.946;5.874;2023-01-09T06:44:11;6.50;90.80
43920;DHT22;29578;51.946;5.874;2023-01-09T06:46:37;6.60;90.80
43920;DHT22;29578;51.946;5.874;2023-01-09T06:49:03;6.60;90.80
43920;DHT22;29578;51.946;5.874;2023-01-09T06:51:29;6.60;90.70
43920;DHT22;29578;51.946;5.874;2023-01-09T06:53:54;6.60;90.80
43920;DHT22;29578;51.946;5.874;2023-01-09T06:56:20;6.60;90.80
43920;DHT22;29578;51.946;5.874;2023-01-09T06:58:45;6.70;90.80
43920;DHT22;29578;51.946;5.874;2023-01-09T07:01:11;6.70;90.80
43920;DHT22;29578;51.946;5.874;2023-01-09T07:03:37;6.70;90.70
43920;DHT22;29578;51.946;5.874;2023-01-09T07:06:03;6.80;90.70
43920;DHT22;29578;51.946;5.874;2023-01-09T07:08:29;6.80;90.70
43920;DHT22;29578;51.946;5.874;2023-01-09T07:10:54;6.80;90.70
43920;DHT22;29578;51.946;5.874;2023-01-09T07:13:20;6.80;90.70
43920;DHT22;29578;51.946;5.874;2023-01-09T07:15:46;6.80;90.70
43920;DHT22;29578;51.946;5.874;2023-01-09T07:18:11;6.90;90.70
43920;DHT22;29578;51.946;5.874;2023-01-09T07:20:38;6.90;90.70
43920;DHT22;29578;51.946;5.874;2023-01-09T07:23:06;6.90;90.70
43920;DHT22;29578;51.946;5.874;2023-01-09T07:25:32;6.90;90.70
43920;DHT22;29578;51.946;5.874;2023-01-09T07:27:57;6.90;90.70
43920;DHT22;29578;51.946;5.874;2023-01-09T07:30:23;6.90;90.70
43920;DHT22;29578;51.946;5.874;2023-01-09T07:32:48;6.90;90.70
43920;DHT22;29578;51.946;5.874;2023-01-09T07:35:14;6.90;90.80
43920;DHT22;29578;51.946;5.874;2023-01-09T07:37:40;6.90;90.80
43920;DHT22;29578;51.946;5.874;2023-01-09T07:40:06;6.90;90.80
43920;DHT22;29578;51.946;5.874;2023-01-09T07:42:32;6.80;90.80
43920;DHT22;29578;51.946;5.874;2023-01-09T07:44:57;6.80;90.80
43920;DHT22;29578;51.946;5.874;2023-01-09T07:47:23;6.80;90.90
43920;DHT22;29578;51.946;5.874;2023-01-09T07:49:54;6.90;90.90
43920;DHT22;29578;51.946;5.874;2023-01-09T07:52:20;6.80;90.90
43920;DHT22;29578;51.946;5.874;2023-01-09T07:54:52;6.80;90.90
43920;DHT22;29578;51.946;5.874;2023-01-09T07:57:24;6.80;90.90
43920;DHT22;29578;51.946;5.874;2023-01-09T07:59:55;6.90;90.90
43920;DHT22;29578;51.946;5.874;2023-01-09T08:02:21;6.90;90.90
43920;DHT22;29578;51.946;5.874;2023-01-09T08:04:47;6.90;90.90
43920;DHT22;29578;51.946;5.874;2023-01-09T08:07:15;6.90;91.00
43920;DHT22;29578;51.946;5.874;2023-01-09T08:09:43;6.90;91.00
43920;DHT22;29578;51.946;5.874;2023-01-09T08:12:09;6.90;91.00
43920;DHT22;29578;51.946;5.874;2023-01-09T08:14:35;6.90;91.00
43920;DHT22;29578;51.946;5.874;2023-01-09T08:17:01;6.90;91.00
43920;DHT22;29578;51.946;5.874;2023-01-09T08:19:27;6.90;91.00
43920;DHT22;29578;51.946;5.874;2023-01-09T08:21:53;6.90;91.00
43920;DHT22;29578;51.946;5.874;2023-01-09T08:24:22;6.90;91.00
43920;DHT22;29578;51.946;5.874;2023-01-09T08:26:47;7.00;91.00
43920;DHT22;29578;51.946;5.874;2023-01-09T08:29:13;7.00;91.00
43920;DHT22;29578;51.946;5.874;2023-01-09T08:31:41;6.80;91.00
43920;DHT22;29578;51.946;5.874;2023-01-09T08:34:10;6.90;91.10
43920;DHT22;29578;51.946;5.874;2023-01-09T08:36:36;6.90;91.10
43920;DHT22;29578;51.946;5.874;2023-01-09T08:39:09;6.90;91.10
43920;DHT22;29578;51.946;5.874;2023-01-09T08:41:39;6.80;91.10
43920;DHT22;29578;51.946;5.874;2023-01-09T08:44:25;6.90;91.20
43920;DHT22;29578;51.946;5.874;2023-01-09T08:47:06;6.90;91.20
43920;DHT22;29578;51.946;5.874;2023-01-09T08:49:34;6.80;91.20
43920;DHT22;29578;51.946;5.874;2023-01-09T08:52:00;6.90;91.30
43920;DHT22;29578;51.946;5.874;2023-01-09T08:54:26;6.90;91.20
43920;DHT22;29578;51.946;5.874;2023-01-09T08:56:51;6.90;91.30
43920;DHT22;29578;51.946;5.874;2023-01-09T08:59:17;6.90;91.20
43920;DHT22;29578;51.946;5.874;2023-01-09T09:01:42;6.90;91.30
43920;DHT22;29578;51.946;5.874;2023-01-09T09:04:08;7.00;91.30
43920;DHT22;29578;51.946;5.874;2023-01-09T09:06:34;7.00;91.20
43920;DHT22;29578;51.946;5.874;2023-01-09T09:09:01;7.10;91.20
43920;DHT22;29578;51.946;5.874;2023-01-09T09:11:29;7.10;91.20
43920;DHT22;29578;51.946;5.874;2023-01-09T09:13:55;7.10;91.20
43920;DHT22;29578;51.946;5.874;2023-01-09T09:16:21;7.10;91.20
43920;DHT22;29578;51.946;5.874;2023-01-09T09:18:46;7.10;91.20
43920;DHT22;29578;51.946;5.874;2023-01-09T09:21:12;7.10;91.40
43920;DHT22;29578;51.946;5.874;2023-01-09T09:23:38;7.20;91.20
43920;DHT22;29578;51.946;5.874;2023-01-09T09:26:04;7.20;91.20
43920;DHT22;29578;51.946;5.874;2023-01-09T09:28:29;7.30;91.30
43920;DHT22;29578;51.946;5.874;2023-01-09T09:30:55;7.20;91.20
43920;DHT22;29578;51.946;5.874;2023-01-09T09:33:38;7.30;91.30
43920;DHT22;29578;51.946;5.874;2023-01-09T09:36:06;7.30;91.30
43920;DHT22;29578;51.946;5.874;2023-01-09T09:38:32;7.50;91.30
43920;DHT22;29578;51.946;5.874;2023-01-09T09:44:28;7.50;91.30
43920;DHT22;29578;51.946;5.874;2023-01-09T09:47:24;7.30;91.20
43920;DHT22;29578;51.946;5.874;2023-01-09T09:50:11;7.30;91.30
43920;DHT22;29578;51.946;5.874;2023-01-09T09:52:57;7.30;91.30
43920;DHT22;29578;51.946;5.874;2023-01-09T09:55:29;7.30;91.30
43920;DHT22;29578;51.946;5.874;2023-01-09T09:57:57;7.40;91.30
43920;DHT22;29578;51.946;5.874;2023-01-09T10:00:24;7.30;91.30
43920;DHT22;29578;51.946;5.874;2023-01-09T10:03:05;7.30;91.40
43920;DHT22;29578;51.946;5.874;2023-01-09T10:05:39;7.40;91.40
43920;DHT22;29578;51.946;5.874;2023-01-09T10:08:14;7.40;91.30
43920;DHT22;29578;51.946;5.874;2023-01-09T10:10:51;7.40;91.30
43920;DHT22;29578;51.946;5.874;2023-01-09T10:13:19;7.40;91.30
43920;DHT22;29578;51.946;5.874;2023-01-09T10:16:24;7.40;91.30
43920;DHT22;29578;51.946;5.874;2023-01-09T10:19:05;7.50;91.30
43920;DHT22;29578;51.946;5.874;2023-01-09T10:21:46;7.50;91.30
43920;DHT22;29578;51.946;5.874;2023-01-09T10:30:41;7.70;91.20
43920;DHT22;29578;51.946;5.874;2023-01-09T10:33:38;7.70;91.20
43920;DHT22;29578;51.946;5.874;2023-01-09T10:39:16;7.60;91.20
43920;DHT22;29578;51.946;5.874;2023-01-09T10:45:27;7.60;91.30
43920;DHT22;29578;51.946;5.874;2023-01-09T10:48:20;7.60;91.30
43920;DHT22;29578;51.946;5.874;2023-01-09T10:50:59;7.60;91.30
43920;DHT22;29578;51.946;5.874;2023-01-09T10:53:29;7.60;91.30
43920;DHT22;29578;51.946;5.874;2023-01-09T10:56:02;7.60;91.40
43920;DHT22;29578;51.946;5.874;2023-01-09T10:58:31;7.50;91.40
43920;DHT22;29578;51.946;5.874;2023-01-09T11:00:57;7.50;91.40
43920;DHT22;29578;51.946;5.874;2023-01-09T11:03:27;7.50;91.50
43920;DHT22;29578;51.946;5.874;2023-01-09T11:05:55;7.60;91.60
43920;DHT22;29578;51.946;5.874;2023-01-09T11:08:28;7.60;91.60
43920;DHT22;29578;51.946;5.874;2023-01-09T11:10:57;7.70;91.60
43920;DHT22;29578;51.946;5.874;2023-01-09T11:13:26;7.90;91.50
43920;DHT22;29578;51.946;5.874;2023-01-09T11:16:05;7.80;91.40
43920;DHT22;29578;51.946;5.874;2023-01-09T11:18:33;7.70;91.40
43920;DHT22;29578;51.946;5.874;2023-01-09T11:21:24;7.70;91.40
43920;DHT22;29578;51.946;5.874;2023-01-09T11:23:53;7.70;91.50
43920;DHT22;29578;51.946;5.874;2023-01-09T11:26:25;7.60;91.50
43920;DHT22;29578;51.946;5.874;2023-01-09T11:29:09;7.70;91.50
43920;DHT22;29578;51.946;5.874;2023-01-09T11:31:35;7.80;91.50
43920;DHT22;29578;51.946;5.874;2023-01-09T11:34:02;7.80;91.50
43920;DHT22;29578;51.946;5.874;2023-01-09T11:36:28;7.80;91.40
43920;DHT22;29578;51.946;5.874;2023-01-09T11:39:13;7.80;91.40
43920;DHT22;29578;51.946;5.874;2023-01-09T11:41:43;7.80;91.40
43920;DHT22;29578;51.946;5.874;2023-01-09T11:44:14;7.90;91.40
43920;DHT22;29578;51.946;5.874;2023-01-09T11:46:41;7.90;91.30
43920;DHT22;29578;51.946;5.874;2023-01-09T11:49:26;7.90;91.30
43920;DHT22;29578;51.946;5.874;2023-01-09T11:52:16;8.00;91.30
43920;DHT22;29578;51.946;5.874;2023-01-09T11:54:58;7.90;91.30
43920;DHT22;29578;51.946;5.874;2023-01-09T11:57:26;8.00;91.30
43920;DHT22;29578;51.946;5.874;2023-01-09T11:59:52;8.00;91.40
43920;DHT22;29578;51.946;5.874;2023-01-09T12:08:23;8.30;91.30
43920;DHT22;29578;51.946;5.874;2023-01-09T12:11:15;8.50;91.20
43920;DHT22;29578;51.946;5.874;2023-01-09T12:14:05;8.60;91.10
43920;DHT22;29578;51.946;5.874;2023-01-09T12:16:42;8.70;91.00
43920;DHT22;29578;51.946;5.874;2023-01-09T12:19:36;8.80;90.90
43920;DHT22;29578;51.946;5.874;2023-01-09T12:22:33;8.80;90.80
43920;DHT22;29578;51.946;5.874;2023-01-09T12:25:14;8.90;90.70
43920;DHT22;29578;51.946;5.874;2023-01-09T12:27:55;8.70;90.70
43920;DHT22;29578;51.946;5.874;2023-01-09T12:30:44;8.80;90.80
43920;DHT22;29578;51.946;5.874;2023-01-09T12:36:24;8.70;90.80
43920;DHT22;29578;51.946;5.874;2023-01-09T12:42:03;8.60;90.90
43920;DHT22;29578;51.946;5.874;2023-01-09T12:44:44;8.60;91.00
43920;DHT22;29578;51.946;5.874;2023-01-09T12:47:46;8.70;91.00
43920;DHT22;29578;51.946;5.874;2023-01-09T12:51:27;8.70;91.00
43920;DHT22;29578;51.946;5.874;2023-01-09T12:56:34;8.90;90.90
43920;DHT22;29578;51.946;5.874;2023-01-09T12:59:18;8.90;90.90
43920;DHT22;29578;51.946;5.874;2023-01-09T13:01:48;9.00;90.90
43920;DHT22;29578;51.946;5.874;2023-01-09T13:04:23;8.90;90.90
43920;DHT22;29578;51.946;5.874;2023-01-09T13:06:54;8.90;91.00
43920;DHT22;29578;51.946;5.874;2023-01-09T13:12:16;8.70;91.00
43920;DHT22;29578;51.946;5.874;2023-01-09T13:14:58;8.70;91.00
43920;DHT22;29578;51.946;5.874;2023-01-09T13:17:35;8.80;91.10
43920;DHT22;29578;51.946;5.874;2023-01-09T13:20:09;8.70;91.10
43920;DHT22;29578;51.946;5.874;2023-01-09T13:22:42;8.80;91.10
43920;DHT22;29578;51.946;5.874;2023-01-09T13:25:42;8.80;91.00
43920;DHT22;29578;51.946;5.874;2023-01-09T13:28:20;8.70;91.00
43920;DHT22;29578;51.946;5.874;2023-01-09T13:31:08;8.70;91.00
43920;DHT22;29578;51.946;5.874;2023-01-09T13:33:38;8.70;91.10
43920;DHT22;29578;51.946;5.874;2023-01-09T13:36:06;8.60;91.10
43920;DHT22;29578;51.946;5.874;2023-01-09T13:38:33;8.50;91.10
43920;DHT22;29578;51.946;5.874;2023-01-09T13:44:01;8.40;91.20
43920;DHT22;29578;51.946;5.874;2023-01-09T13:46:38;8.40;91.30
43920;DHT22;29578;51.946;5.874;2023-01-09T13:49:05;8.40;91.30
43920;DHT22;29578;51.946;5.874;2023-01-09T13:55:03;8.40;91.30
43920;DHT22;29578;51.946;5.874;2023-01-09T14:00:47;8.30;91.30
43920;DHT22;29578;51.946;5.874;2023-01-09T14:03:26;8.30;91.30
43920;DHT22;29578;51.946;5.874;2023-01-09T14:06:10;8.20;91.30
43920;DHT22;29578;51.946;5.874;2023-01-09T14:08:36;8.30;91.30
43920;DHT22;29578;51.946;5.874;2023-01-09T14:11:03;8.20;91.30
43920;DHT22;29578;51.946;5.874;2023-01-09T14:14:13;8.20;91.30
43920;DHT22;29578;51.946;5.874;2023-01-09T14:16:20;8.20;91.30
43920;DHT22;29578;51.946;5.874;2023-01-09T14:18:53;8.20;91.30
43920;DHT22;29578;51.946;5.874;2023-01-09T14:21:22;8.10;91.30
43920;DHT22;29578;51.946;5.874;2023-01-09T14:23:57;8.20;91.30
43920;DHT22;29578;51.946;5.874;2023-01-09T14:26:41;8.20;91.30
43920;DHT22;29578;51.946;5.874;2023-01-09T14:29:37;8.10;91.20
43920;DHT22;29578;51.946;5.874;2023-01-09T14:35:16;8.10;91.30
43920;DHT22;29578;51.946;5.874;2023-01-09T14:37:53;8.00;91.30
43920;DHT22;29578;51.946;5.874;2023-01-09T14:40:22;8.00;91.30
43920;DHT22;29578;51.946;5.874;2023-01-09T14:42:51;7.90;91.30
43920;DHT22;29578;51.946;5.874;2023-01-09T14:45:21;7.90;91.40
43920;DHT22;29578;51.946;5.874;2023-01-09T14:48:02;7.90;91.40
43920;DHT22;29578;51.946;5.874;2023-01-09T14:50:41;7.80;91.40
43920;DHT22;29578;51.946;5.874;2023-01-09T14:53:15;7.90;91.40
43920;DHT22;29578;51.946;5.874;2023-01-09T14:56:00;7.80;91.40
43920;DHT22;29578;51.946;5.874;2023-01-09T14:58:29;7.70;91.40
43920;DHT22;29578;51.946;5.874;2023-01-09T15:01:01;7.70;91.40
43920;DHT22;29578;51.946;5.874;2023-01-09T15:03:57;7.60;91.40
43920;DHT22;29578;51.946;5.874;2023-01-09T15:06:32;7.60;91.40
43920;DHT22;29578;51.946;5.874;2023-01-09T15:09:05;7.70;91.50
43920;DHT22;29578;51.946;5.874;2023-01-09T15:11:31;7.70;91.50
43920;DHT22;29578;51.946;5.874;2023-01-09T15:13:58;7.70;91.50
43920;DHT22;29578;51.946;5.874;2023-01-09T15:16:26;7.70;91.40
43920;DHT22;29578;51.946;5.874;2023-01-09T15:18:56;7.60;91.40
43920;DHT22;29578;51.946;5.874;2023-01-09T15:21:25;7.70;91.40
43920;DHT22;29578;51.946;5.874;2023-01-09T15:23:51;7.70;91.30
43920;DHT22;29578;51.946;5.874;2023-01-09T15:26:32;7.80;91.30
43920;DHT22;29578;51.946;5.874;2023-01-09T15:29:01;7.70;91.30
43920;DHT22;29578;51.946;5.874;2023-01-09T15:31:27;7.70;91.30
43920;DHT22;29578;51.946;5.874;2023-01-09T15:33:53;7.70;91.30
43920;DHT22;29578;51.946;5.874;2023-01-09T15:36:22;7.60;91.30
43920;DHT22;29578;51.946;5.874;2023-01-09T15:38:50;7.60;91.40
43920;DHT22;29578;51.946;5.874;2023-01-09T15:41:18;7.50;91.40
43920;DHT22;29578;51.946;5.874;2023-01-09T15:44:04;7.50;91.40
43920;DHT22;29578;51.946;5.874;2023-01-09T15:46:31;7.40;91.40
43920;DHT22;29578;51.946;5.874;2023-01-09T15:48:57;7.40;91.50
43920;DHT22;29578;51.946;5.874;2023-01-09T15:51:23;7.30;91.50
43920;DHT22;29578;51.946;5.874;2023-01-09T15:53:50;7.40;91.60
43920;DHT22;29578;51.946;5.874;2023-01-09T15:56:21;7.30;91.60
43920;DHT22;29578;51.946;5.874;2023-01-09T15:58:50;7.30;91.60
43920;DHT22;29578;51.946;5.874;2023-01-09T16:01:37;7.30;91.50
43920;DHT22;29578;51.946;5.874;2023-01-09T16:04:14;7.30;91.60
43920;DHT22;29578;51.946;5.874;2023-01-09T16:06:46;7.20;91.60
43920;DHT22;29578;51.946;5.874;2023-01-09T16:09:22;7.20;91.60
43920;DHT22;29578;51.946;5.874;2023-01-09T16:11:52;7.20;91.60
43920;DHT22;29578;51.946;5.874;2023-01-09T16:14:21;7.10;91.60
43920;DHT22;29578;51.946;5.874;2023-01-09T16:16:50;7.00;91.60
43920;DHT22;29578;51.946;5.874;2023-01-09T16:19:45;7.10;91.70
43920;DHT22;29578;51.946;5.874;2023-01-09T16:22:24;7.00;91.80
43920;DHT22;29578;51.946;5.874;2023-01-09T16:24:52;7.00;91.80
43920;DHT22;29578;51.946;5.874;2023-01-09T16:27:33;7.00;91.80
43920;DHT22;29578;51.946;5.874;2023-01-09T16:30:19;7.00;91.80
43920;DHT22;29578;51.946;5.874;2023-01-09T16:32:47;7.00;91.80
43920;DHT22;29578;51.946;5.874;2023-01-09T16:35:17;7.00;91.70
43920;DHT22;29578;51.946;5.874;2023-01-09T16:37:44;7.00;91.70
43920;DHT22;29578;51.946;5.874;2023-01-09T16:40:26;7.00;91.70
43920;DHT22;29578;51.946;5.874;2023-01-09T16:42:55;7.00;91.70
43920;DHT22;29578;51.946;5.874;2023-01-09T16:45:27;7.00;91.70
43920;DHT22;29578;51.946;5.874;2023-01-09T16:47:54;6.90;91.70
43920;DHT22;29578;51.946;5.874;2023-01-09T16:50:19;6.90;91.70
43920;DHT22;29578;51.946;5.874;2023-01-09T16:52:46;6.90;91.80
43920;DHT22;29578;51.946;5.874;2023-01-09T16:55:11;6.90;91.80
43920;DHT22;29578;51.946;5.874;2023-01-09T16:57:37;6.90;91.80
43920;DHT22;29578;51.946;5.874;2023-01-09T17:00:03;6.90;91.80
43920;DHT22;29578;51.946;5.874;2023-01-09T17:02:29;6.80;91.70
43920;DHT22;29578;51.946;5.874;2023-01-09T17:04:55;6.80;91.80
43920;DHT22;29578;51.946;5.874;2023-01-09T17:07:22;6.80;91.80